Time;durP1;ratioP1;P1;durP2;ratioP2;P2;SDS_P1;SDS_P2;PMS_P1;PMS_P2;Temp;Humidity;BMP_temperature;BMP_pressure;BME280_temperature;BME280_humidity;BME280_pressure;Samples;Min_cycle;Max_cycle;Signal;HPM_P1;HPM_P2
2021/12/21 00:00:12;;;;;;;;;22.00;17.75;;;;;8.22;48.95;101969.44;5034293;28;45378;-71
2021/12/21 00:02:45;;;;;;;;;23.00;19.50;;;;;8.10;48.36;101939.47;5018512;28;45632;-69
2021/12/21 00:05:19;;;;;;;;;24.25;19.00;;;;;8.22;49.29;101972.13;5022792;28;45519;-70
2021/12/21 00:07:46;;;;;;;;;22.00;18.00;;;;;8.15;49.11;101956.66;5021085;28;46088;-69
2021/12/21 00:10:12;;;;;;;;;23.75;21.00;;;;;8.19;49.44;101966.63;5024897;28;45320;-71
2021/12/21 00:12:47;;;;;;;;;24.25;16.50;;;;;8.17;49.00;101960.28;5018337;28;46226;-70
2021/12/21 00:16:00;;;;;;;;;23.00;17.50;;;;;8.16;49.31;101950.47;5016915;28;45371;-71
2021/12/21 00:21:01;;;;;;;;;28.25;20.75;;;;;8.15;49.62;101946.00;5021574;28;45382;-71
2021/12/21 00:23:31;;;;;;;;;27.00;22.50;;;;;8.15;49.14;101935.34;5032320;28;45333;-71
2021/12/21 00:26:06;;;;;;;;;26.00;17.75;;;;;8.12;49.51;101937.84;5031232;28;45159;-68
2021/12/21 00:28:39;;;;;;;;;22.75;18.75;;;;;8.07;48.95;101937.56;5029780;28;45520;-69
2021/12/21 00:31:04;;;;;;;;;27.00;22.50;;;;;8.05;49.76;101941.91;5018769;28;45370;-69
2021/12/21 00:33:30;;;;;;;;;24.00;19.00;;;;;8.02;49.33;101943.44;5016974;28;45407;-72
2021/12/21 00:35:55;;;;;;;;;25.25;17.75;;;;;8.00;49.91;101935.41;5020366;28;45550;-69
2021/12/21 00:38:21;;;;;;;;;22.00;16.00;;;;;7.99;49.06;101933.56;5029879;28;46597;-72
2021/12/21 00:40:46;;;;;;;;;29.50;21.50;;;;;7.96;48.84;101927.16;5029265;28;45260;-69
2021/12/21 00:43:11;;;;;;;;;22.00;16.25;;;;;7.87;49.74;101919.56;5031775;28;45451;-69
2021/12/21 00:45:37;;;;;;;;;25.50;21.00;;;;;7.98;49.15;101941.47;5025278;28;45312;-71
2021/12/21 00:48:02;;;;;;;;;25.50;18.00;;;;;7.93;49.70;101936.78;5033856;28;46368;-70
2021/12/21 00:50:29;;;;;;;;;23.25;18.50;;;;;7.97;49.81;101951.22;5021949;28;45350;-70
2021/12/21 00:52:54;;;;;;;;;23.50;20.50;;;;;7.82;49.35;101926.38;5019877;28;45290;-68
2021/12/21 00:55:21;;;;;;;;;14.75;12.00;;;;;7.94;49.22;101941.28;5030079;28;44894;-69
2021/12/21 00:57:47;;;;;;;;;21.75;16.00;;;;;7.95;49.81;101939.53;5029412;28;45365;-66
2021/12/21 01:00:15;;;;;;;;;23.25;16.50;;;;;7.95;49.08;101936.88;5032839;28;45157;-71
2021/12/21 01:02:42;;;;;;;;;21.50;17.50;;;;;7.92;49.96;101937.63;5049048;28;45082;-69
2021/12/21 01:05:42;;;;;;;;;20.25;16.75;;;;;7.68;49.80;101902.56;5032737;28;44965;-71
2021/12/21 01:08:00;;;;;;;;;15.00;12.25;;;;;7.70;49.53;101908.88;5030252;28;45833;-70
2021/12/21 01:13:15;;;;;;;;;27.25;22.75;;;;;7.85;49.33;101924.81;5019094;28;45422;-70
2021/12/21 01:16:02;;;;;;;;;16.25;14.50;;;;;7.84;49.41;101924.75;5028270;28;45386;-70
2021/12/21 01:21:22;;;;;;;;;15.50;15.50;;;;;7.85;49.18;101930.16;5002866;28;45588;-71
2021/12/21 01:29:36;;;;;;;;;15.50;15.00;;;;;7.82;49.82;101922.00;5023439;28;45609;-69
2021/12/21 01:32:05;;;;;;;;;18.00;15.00;;;;;7.65;49.23;101901.47;5016537;28;45448;-69
2021/12/21 01:37:03;;;;;;;;;21.50;18.25;;;;;7.71;49.50;101912.47;5015815;28;45656;-69
2021/12/21 01:39:54;;;;;;;;;15.25;14.25;;;;;7.57;49.27;101901.97;5017201;28;45432;-69
2021/12/21 01:42:33;;;;;;;;;17.25;15.50;;;;;7.65;50.43;101909.47;5026044;28;45364;-70
2021/12/21 01:50:27;;;;;;;;;19.00;16.00;;;;;7.71;49.71;101920.47;5013366;28;45725;-69
2021/12/21 01:52:52;;;;;;;;;22.00;20.00;;;;;7.71;49.89;101920.47;5014698;28;45478;-71
2021/12/21 01:55:18;;;;;;;;;27.25;20.00;;;;;7.14;50.19;101822.44;5017129;28;45586;-70
2021/12/21 01:57:43;;;;;;;;;25.25;17.00;;;;;7.61;49.72;101912.78;5019253;28;45359;-67
2021/12/21 02:00:09;;;;;;;;;15.50;14.75;;;;;7.63;50.34;101916.44;5014888;28;46223;-67
2021/12/21 02:02:35;;;;;;;;;16.00;13.50;;;;;7.54;49.88;101911.53;5019294;28;45377;-69
2021/12/21 02:05:00;;;;;;;;;14.00;14.00;;;;;7.62;49.79;101926.16;5015088;28;45205;-71
2021/12/21 02:07:26;;;;;;;;;16.00;15.00;;;;;7.59;49.99;101920.69;5014755;28;45408;-70
2021/12/21 02:09:51;;;;;;;;;15.75;14.25;;;;;7.16;50.07;101844.69;5018093;28;46232;-68
2021/12/21 02:12:19;;;;;;;;;19.00;15.50;;;;;7.59;49.74;101909.09;5027112;28;45413;-71
2021/12/21 02:14:52;;;;;;;;;20.00;18.50;;;;;7.54;50.27;101912.44;5030122;28;44969;-70
2021/12/21 02:20:26;;;;;;;;;22.25;17.25;;;;;7.52;50.18;101914.09;5015516;28;45433;-67
2021/12/21 02:23:31;;;;;;;;;21.75;15.50;;;;;7.46;50.42;101900.44;5024631;28;45518;-69
2021/12/21 02:28:36;;;;;;;;;4.75;0.25;;;;;7.51;50.52;101908.69;5026215;28;45516;-69
2021/12/21 02:31:01;;;;;;;;;14.25;13.75;;;;;7.37;50.72;101873.31;5023095;28;46009;-71
2021/12/21 02:33:27;;;;;;;;;25.75;23.75;;;;;7.51;50.47;101898.97;5025082;28;45395;-69
2021/12/21 02:35:53;;;;;;;;;21.00;14.00;;;;;7.54;51.20;101898.22;5028048;28;45377;-71
2021/12/21 02:38:19;;;;;;;;;19.50;15.25;;;;;7.45;50.58;101876.41;5030755;28;45638;-68
2021/12/21 02:40:46;;;;;;;;;26.75;19.00;;;;;7.55;50.51;101892.06;5017357;28;45470;-67
2021/12/21 02:43:13;;;;;;;;;25.50;20.75;;;;;7.53;50.51;101889.31;5017300;28;45497;-69
2021/12/21 02:45:39;;;;;;;;;15.25;14.00;;;;;7.51;50.80;101892.72;5005813;28;45414;-68
2021/12/21 02:48:05;;;;;;;;;19.75;15.00;;;;;7.50;50.83;101883.81;5029551;28;45323;-68
2021/12/21 02:50:31;;;;;;;;;20.25;17.50;;;;;7.50;50.75;101883.81;5024103;28;45368;-68
2021/12/21 02:52:59;;;;;;;;;22.75;17.75;;;;;7.47;50.70;101880.97;5016343;28;45530;-69
2021/12/21 02:55:26;;;;;;;;;25.75;16.50;;;;;7.47;50.57;101882.72;5013998;28;44835;-70
2021/12/21 02:57:52;;;;;;;;;19.75;15.00;;;;;7.41;50.78;101872.69;5013656;28;45466;-68
2021/12/21 03:00:17;;;;;;;;;20.50;14.50;;;;;7.27;50.45;101849.69;5019636;28;46553;-69
2021/12/21 03:02:43;;;;;;;;;23.50;15.50;;;;;7.33;50.35;101866.91;5030739;28;45017;-69
2021/12/21 03:05:08;;;;;;;;;16.75;14.25;;;;;7.34;50.36;101871.41;5019523;28;45429;-69
2021/12/21 03:10:11;;;;;;;;;18.50;14.50;;;;;7.19;50.42;101842.22;5023124;28;45521;-68
2021/12/21 03:15:19;;;;;;;;;18.25;16.00;;;;;7.27;50.60;101863.88;5014643;28;45409;-69
2021/12/21 03:17:44;;;;;;;;;17.00;14.00;;;;;7.17;50.37;101851.81;5014108;28;45548;-70
2021/12/21 03:20:10;;;;;;;;;18.25;12.50;;;;;7.20;50.54;101867.03;5013450;28;46037;-70
2021/12/21 03:22:36;;;;;;;;;17.00;15.00;;;;;6.97;50.81;101845.34;5013751;28;45476;-71
2021/12/21 03:25:01;;;;;;;;;11.50;11.25;;;;;7.17;51.29;101862.44;5015109;28;45445;-72
2021/12/21 03:27:27;;;;;;;;;16.50;9.25;;;;;7.10;50.80;101848.72;5018174;28;45333;-66
2021/12/21 03:29:52;;;;;;;;;16.00;13.50;;;;;7.19;50.84;101866.13;5020580;28;46870;-69
2021/12/21 03:32:17;;;;;;;;;19.00;13.50;;;;;7.18;50.96;101866.03;5023612;28;45584;-71
2021/12/21 03:34:43;;;;;;;;;11.50;11.00;;;;;7.19;50.68;101871.44;5021952;28;45432;-67
2021/12/21 03:37:12;;;;;;;;;15.00;11.75;;;;;7.04;50.97;101843.06;5023944;28;45631;-70
2021/12/21 03:39:42;;;;;;;;;13.50;11.00;;;;;7.13;51.07;101864.84;5020813;28;46114;-70
2021/12/21 03:42:09;;;;;;;;;14.50;11.25;;;;;6.98;51.11;101860.47;5020860;28;45445;-70
2021/12/21 03:44:34;;;;;;;;;14.00;10.00;;;;;6.66;50.92;101804.53;5021171;28;45640;-70
2021/12/21 03:47:00;;;;;;;;;14.25;12.50;;;;;6.96;51.43;101842.59;5020684;28;45258;-69
2021/12/21 03:51:57;;;;;;;;;21.00;15.50;;;;;6.97;51.87;101865.69;5021271;28;45655;-71
2021/12/21 03:54:23;;;;;;;;;18.75;12.75;;;;;7.01;51.70;101871.28;5020973;28;45379;-71
2021/12/21 03:56:51;;;;;;;;;16.25;13.00;;;;;6.95;51.85;101865.59;5020376;28;45376;-68
2021/12/21 03:59:17;;;;;;;;;16.50;13.75;;;;;6.96;51.80;101878.06;5015299;28;46155;-72
2021/12/21 04:01:43;;;;;;;;;14.75;9.75;;;;;6.36;51.79;101762.97;5001973;28;45583;-70
2021/12/21 04:04:08;;;;;;;;;17.00;12.75;;;;;6.95;51.96;101876.22;5016686;28;45438;-71
2021/12/21 04:06:35;;;;;;;;;12.50;9.75;;;;;6.96;51.77;101871.81;5020271;28;45367;-71
2021/12/21 04:09:06;;;;;;;;;17.50;15.00;;;;;6.96;51.74;101877.13;5019899;28;45518;-71
2021/12/21 04:11:32;;;;;;;;;14.00;10.00;;;;;6.93;52.08;101866.31;5020251;28;45539;-71
2021/12/21 04:13:58;;;;;;;;;12.25;10.25;;;;;6.89;52.11;101865.22;5020388;28;45562;-70
2021/12/21 04:16:24;;;;;;;;;15.75;13.50;;;;;6.83;52.33;101854.25;5020016;28;45425;-73
2021/12/21 04:18:49;;;;;;;;;19.50;15.75;;;;;6.75;52.09;101843.16;5019477;28;45372;-70
2021/12/21 04:21:15;;;;;;;;;19.75;17.75;;;;;6.66;52.67;101829.34;5025159;28;45435;-71
2021/12/21 04:23:41;;;;;;;;;20.25;14.75;;;;;6.68;52.40;101824.13;5025157;28;45450;-69
2021/12/21 04:26:09;;;;;;;;;19.00;13.00;;;;;6.67;52.51;101836.50;5023801;28;45271;-70
2021/12/21 04:28:34;;;;;;;;;14.00;13.00;;;;;6.45;52.28;101797.09;5022557;28;46494;-72
2021/12/21 04:31:01;;;;;;;;;14.25;13.00;;;;;6.80;52.54;101852.31;5023483;28;45461;-71
2021/12/21 04:33:26;;;;;;;;;18.75;14.50;;;;;6.26;52.51;101768.56;5019795;28;45523;-68
2021/12/21 04:35:52;;;;;;;;;13.50;13.25;;;;;6.77;52.63;101853.88;5021878;28;45393;-67
2021/12/21 04:40:48;;;;;;;;;15.25;13.50;;;;;6.77;52.72;101851.22;5016238;28;45406;-70
2021/12/21 04:43:14;;;;;;;;;19.75;15.75;;;;;6.76;52.71;101852.94;5016566;28;45213;-68
2021/12/21 04:45:40;;;;;;;;;20.00;13.25;;;;;6.74;52.69;101859.91;5016358;28;45465;-72
2021/12/21 04:48:06;;;;;;;;;16.75;15.00;;;;;6.72;52.99;101856.25;5016024;28;46924;-69
2021/12/21 04:50:32;;;;;;;;;17.25;14.50;;;;;6.58;53.17;101839.53;5016369;28;45645;-69
2021/12/21 04:52:57;;;;;;;;;22.75;16.25;;;;;6.71;52.97;101848.19;5016515;28;45661;-71
2021/12/21 04:55:22;;;;;;;;;20.25;15.00;;;;;6.58;53.00;101836.88;5016108;28;45494;-70
2021/12/21 04:57:48;;;;;;;;;19.00;17.50;;;;;6.64;53.36;101850.47;5015725;28;46030;-70
2021/12/21 05:00:14;;;;;;;;;24.00;18.50;;;;;6.30;53.12;101788.22;5003306;28;45403;-69
2021/12/21 05:02:39;;;;;;;;;23.50;18.00;;;;;6.42;53.17;101813.78;5016273;28;45366;-67
2021/12/21 05:05:06;;;;;;;;;25.75;19.50;;;;;6.62;53.13;101837.97;5018004;28;45422;-71
2021/12/21 05:07:34;;;;;;;;;19.25;14.00;;;;;6.60;53.24;101842.22;5016875;28;46061;-71
2021/12/21 05:10:00;;;;;;;;;19.50;16.00;;;;;6.57;53.02;101850.03;5015887;28;45238;-70
2021/12/21 05:12:26;;;;;;;;;16.75;14.75;;;;;6.54;53.34;101850.75;5016150;28;45364;-71
2021/12/21 05:14:51;;;;;;;;;16.75;12.75;;;;;6.48;53.51;101853.03;5015958;28;45405;-67
2021/12/21 05:17:17;;;;;;;;;18.50;14.50;;;;;6.42;53.45;101858.00;5015263;28;45934;-69
2021/12/21 05:19:43;;;;;;;;;15.25;13.50;;;;;6.37;53.35;101863.03;5015407;28;45474;-70
2021/12/21 05:22:08;;;;;;;;;27.50;15.50;;;;;6.33;53.71;101858.31;5016249;28;45488;-69
2021/12/21 05:24:33;;;;;;;;;12.00;10.00;;;;;6.37;54.00;101860.38;5015661;28;45497;-71
2021/12/21 05:26:59;;;;;;;;;15.50;9.25;;;;;6.39;53.60;101874.63;5015626;28;45347;-72
2021/12/21 05:29:24;;;;;;;;;19.25;15.75;;;;;6.27;53.44;101839.41;5017721;28;45365;-71
2021/12/21 05:31:50;;;;;;;;;25.25;16.75;;;;;6.41;53.69;101856.16;5015352;28;45531;-72
2021/12/21 05:34:16;;;;;;;;;24.25;18.00;;;;;6.42;53.87;101866.88;5015245;28;45451;-69
2021/12/21 05:36:41;;;;;;;;;12.75;12.75;;;;;6.43;53.52;101862.47;5015412;28;45337;-72
2021/12/21 05:39:16;;;;;;;;;16.00;13.75;;;;;6.42;53.73;101860.66;5015939;28;45510;-71
2021/12/21 05:41:55;;;;;;;;;12.50;11.50;;;;;6.39;53.37;101863.13;5017263;28;45453;-66
2021/12/21 05:44:25;;;;;;;;;19.25;17.25;;;;;6.31;53.81;101853.75;5016855;28;45257;-71
2021/12/21 05:46:53;;;;;;;;;17.50;15.00;;;;;6.34;53.62;101861.91;5015466;28;46404;-69
2021/12/21 05:49:19;;;;;;;;;23.00;17.00;;;;;6.15;53.75;101835.97;5014633;28;45565;-71
2021/12/21 05:51:45;;;;;;;;;18.25;14.00;;;;;6.12;54.36;101839.38;5016403;28;45621;-69
2021/12/21 05:54:11;;;;;;;;;13.50;13.00;;;;;6.27;54.10;101864.19;5014403;28;45488;-71
2021/12/21 05:56:37;;;;;;;;;18.50;15.75;;;;;6.18;54.29;101844.13;5014700;28;45441;-68
2021/12/21 05:59:03;;;;;;;;;16.00;11.50;;;;;6.11;54.66;101847.22;5015565;28;45496;-70
2021/12/21 06:01:32;;;;;;;;;13.75;13.75;;;;;6.21;53.83;101860.25;5014837;28;45498;-69
2021/12/21 06:04:00;;;;;;;;;12.25;12.25;;;;;6.17;54.43;101864.44;5015231;28;45252;-71
2021/12/21 06:06:26;;;;;;;;;19.25;19.00;;;;;5.70;54.27;101781.03;5015034;28;45303;-71
2021/12/21 06:08:53;;;;;;;;;14.25;13.00;;;;;6.23;54.69;101880.72;5014661;28;45472;-70
2021/12/21 06:11:20;;;;;;;;;21.75;15.50;;;;;6.21;54.55;101870.84;5014985;28;45496;-70
2021/12/21 06:14:48;;;;;;;;;18.50;16.50;;;;;6.16;54.36;101873.22;5015367;28;45363;-69
2021/12/21 06:27:09;;;;;;;;;17.00;11.50;;;;;6.10;54.79;101867.53;5014114;28;45633;-66
2021/12/21 06:29:35;;;;;;;;;20.50;12.50;;;;;6.18;54.48;101874.22;5015254;28;45453;-68
2021/12/21 06:32:01;;;;;;;;;13.50;11.75;;;;;6.18;54.57;101881.28;5015144;28;45529;-67
2021/12/21 06:34:27;;;;;;;;;14.75;8.00;;;;;6.13;54.64;101882.72;5014906;28;45521;-67
2021/12/21 06:36:52;;;;;;;;;17.25;15.50;;;;;6.10;54.80;101875.47;5013352;28;46282;-69
2021/12/21 06:39:18;;;;;;;;;20.25;14.00;;;;;5.88;54.96;101855.53;5014326;28;45272;-68
2021/12/21 06:41:44;;;;;;;;;17.50;12.00;;;;;6.05;54.27;101871.63;5014361;28;45332;-67
2021/12/21 06:44:12;;;;;;;;;16.75;12.50;;;;;6.04;55.07;101873.38;5014666;28;45391;-71
2021/12/21 06:52:20;;;;;;;;;13.75;12.25;;;;;5.89;55.15;101838.81;5023829;28;45437;-69
2021/12/21 06:54:45;;;;;;;;;16.50;13.50;;;;;5.89;54.61;101845.84;5017990;28;45355;-71
2021/12/21 06:57:11;;;;;;;;;17.75;14.50;;;;;5.98;55.54;101857.06;5017588;28;45442;-69
2021/12/21 06:59:37;;;;;;;;;17.00;14.75;;;;;5.70;55.76;101804.91;5022305;28;45398;-71
2021/12/21 07:02:02;;;;;;;;;17.50;14.00;;;;;5.86;54.97;101843.00;5015637;28;45481;-70
2021/12/21 07:04:28;;;;;;;;;18.00;16.75;;;;;5.95;55.24;101866.53;5019274;28;45598;-69
2021/12/21 07:06:55;;;;;;;;;14.75;11.00;;;;;5.81;55.05;101839.16;5022714;28;46045;-71
2021/12/21 07:12:33;;;;;;;;;38.00;24.25;;;;;5.92;54.98;101867.25;5030305;28;45036;-72
2021/12/21 07:20:27;;;;;;;;;32.75;26.00;;;;;5.90;54.66;101866.22;5013507;28;45488;-70
2021/12/21 07:22:52;;;;;;;;;21.25;18.75;;;;;5.93;54.70;101866.44;5012934;28;45390;-70
2021/12/21 07:25:18;;;;;;;;;17.75;13.00;;;;;5.83;55.07;101862.28;5013990;28;45332;-71
2021/12/21 07:27:43;;;;;;;;;34.00;21.00;;;;;5.72;55.17;101837.75;5013567;28;46466;-72
2021/12/21 07:30:09;;;;;;;;;14.75;11.50;;;;;5.85;54.99;101865.03;5000377;28;45256;-70
2021/12/21 07:32:36;;;;;;;;;23.75;20.00;;;;;5.67;54.68;101836.50;4993647;28;45300;-71
2021/12/21 07:35:02;;;;;;;;;19.25;17.00;;;;;5.88;54.82;101875.84;4993671;28;45580;-72
2021/12/21 07:37:28;;;;;;;;;14.75;13.25;;;;;5.89;55.53;101877.69;4997115;28;48001;-72
2021/12/21 07:39:53;;;;;;;;;16.75;14.25;;;;;5.84;55.52;101882.69;5016183;28;45563;-72
2021/12/21 07:42:20;;;;;;;;;29.50;23.50;;;;;5.67;55.19;101856.81;5008169;28;45510;-70
2021/12/21 07:44:46;;;;;;;;;14.25;14.25;;;;;5.60;55.18;101858.16;5009494;28;45541;-72
2021/12/21 07:47:12;;;;;;;;;15.75;13.00;;;;;5.76;55.53;101881.28;5011706;28;46073;-70
2021/12/21 07:49:37;;;;;;;;;17.50;12.75;;;;;5.68;54.76;101867.53;5013516;28;45531;-71
2021/12/21 07:52:07;;;;;;;;;12.75;11.75;;;;;5.72;55.48;101881.88;5012912;28;45352;-70
2021/12/21 07:54:32;;;;;;;;;17.50;15.50;;;;;5.67;55.29;101884.25;5013852;28;45547;-71
2021/12/21 07:56:58;;;;;;;;;17.75;15.75;;;;;5.58;55.58;101870.41;5010686;28;46714;-71
2021/12/21 07:59:23;;;;;;;;;16.75;14.75;;;;;5.35;55.07;101824.78;5012998;28;46272;-70
2021/12/21 08:01:49;;;;;;;;;17.00;14.00;;;;;5.69;55.84;101876.38;5012880;28;45511;-71
2021/12/21 08:04:15;;;;;;;;;16.25;13.50;;;;;5.67;55.77;101884.25;5013495;28;45286;-72
2021/12/21 08:06:40;;;;;;;;;12.75;12.50;;;;;5.71;55.56;101888.03;5012283;28;48243;-71
2021/12/21 08:09:06;;;;;;;;;16.00;13.25;;;;;5.68;55.01;101878.13;5012232;28;45356;-69
2021/12/21 08:14:02;;;;;;;;;18.50;13.25;;;;;5.68;55.14;101894.03;5015522;28;45355;-70
2021/12/21 08:16:27;;;;;;;;;20.00;19.00;;;;;5.22;55.03;101803.59;5016330;28;46498;-68
2021/12/21 08:18:53;;;;;;;;;17.50;16.25;;;;;5.71;55.24;101899.53;5016148;28;45397;-71
2021/12/21 08:21:19;;;;;;;;;21.25;15.75;;;;;5.17;55.37;101805.03;5016671;28;45796;-70
2021/12/21 08:23:46;;;;;;;;;19.00;13.00;;;;;5.59;54.60;101882.81;5016473;28;45581;-72
2021/12/21 08:26:12;;;;;;;;;21.00;13.00;;;;;5.58;54.98;101872.16;5014944;28;45461;-70
2021/12/21 08:28:38;;;;;;;;;18.25;13.25;;;;;5.71;55.46;101894.25;5016256;28;45284;-70
2021/12/21 08:31:09;;;;;;;;;38.25;32.25;;;;;5.67;55.13;101886.88;5015533;28;45476;-69
2021/12/21 08:33:35;;;;;;;;;18.50;15.50;;;;;5.63;55.20;101870.72;5021524;28;45426;-71
2021/12/21 08:36:01;;;;;;;;;23.00;17.75;;;;;5.81;55.37;101895.75;5017503;28;46545;-71
2021/12/21 08:38:26;;;;;;;;;26.25;14.00;;;;;5.80;54.96;101896.56;5023996;28;45611;-69
2021/12/21 08:40:53;;;;;;;;;26.75;25.50;;;;;5.83;54.61;101894.09;5015895;28;45600;-69
2021/12/21 08:43:24;;;;;;;;;32.00;27.25;;;;;5.41;55.16;101823.34;5016197;28;45476;-69
2021/12/21 08:45:51;;;;;;;;;18.50;13.00;;;;;5.84;54.23;101895.94;5015437;28;45418;-70
2021/12/21 08:48:17;;;;;;;;;20.50;19.25;;;;;5.81;54.52;101889.53;5015852;28;45265;-71
2021/12/21 08:50:44;;;;;;;;;17.25;15.50;;;;;5.87;54.90;101895.22;5027956;28;44925;-69
2021/12/21 08:53:12;;;;;;;;;19.50;17.25;;;;;5.83;54.85;101882.59;5021129;28;45812;-69
2021/12/21 08:55:38;;;;;;;;;28.25;22.25;;;;;5.73;54.83;101857.22;5014365;28;45915;-72
2021/12/21 08:58:03;;;;;;;;;18.50;16.50;;;;;5.86;54.58;101889.00;5015266;28;45578;-71
2021/12/21 09:00:28;;;;;;;;;25.25;17.50;;;;;5.85;54.29;101891.56;5017351;28;45351;-69
2021/12/21 09:02:54;;;;;;;;;21.25;17.25;;;;;5.83;54.46;101891.44;5017882;28;45366;-70
2021/12/21 09:05:25;;;;;;;;;19.00;17.00;;;;;5.72;54.18;101880.19;5015368;28;45872;-72
2021/12/21 09:07:50;;;;;;;;;28.25;24.25;;;;;5.81;54.46;101890.44;5013959;28;45430;-70
2021/12/21 09:10:18;;;;;;;;;19.25;14.00;;;;;5.78;54.85;101884.94;5013165;28;45492;-70
2021/12/21 09:12:44;;;;;;;;;21.50;19.00;;;;;5.29;53.76;101794.31;5015208;28;45590;-74
2021/12/21 09:15:11;;;;;;;;;52.75;44.25;;;;;5.90;54.36;101908.66;5015083;28;45472;-72
2021/12/21 09:17:39;;;;;;;;;24.75;20.50;;;;;5.79;54.28;101881.50;5014684;28;45437;-74
2021/12/21 09:20:05;;;;;;;;;18.75;18.00;;;;;5.88;54.28;101903.28;5015117;28;45335;-72
2021/12/21 09:22:30;;;;;;;;;32.75;25.00;;;;;5.95;54.13;101912.53;5015548;28;45452;-72
2021/12/21 09:24:57;;;;;;;;;25.00;23.00;;;;;5.79;53.97;101888.50;5014191;28;46815;-70
2021/12/21 09:27:23;;;;;;;;;20.75;14.75;;;;;5.89;54.07;101910.41;5015010;28;45347;-72
2021/12/21 09:29:48;;;;;;;;;23.25;17.75;;;;;5.85;53.48;101908.38;5014496;28;45468;-73
2021/12/21 09:32:15;;;;;;;;;21.75;18.00;;;;;5.81;54.23;101901.06;5015501;28;45416;-73
2021/12/21 09:34:41;;;;;;;;;19.50;13.25;;;;;5.94;53.90;101909.78;5015268;28;46943;-73
2021/12/21 09:37:10;;;;;;;;;17.00;14.25;;;;;5.89;54.14;101913.06;5014674;28;46039;-70
2021/12/21 09:39:35;;;;;;;;;26.00;18.25;;;;;5.71;53.96;101867.72;5014891;28;45458;-72
2021/12/21 09:42:01;;;;;;;;;32.00;20.25;;;;;5.98;54.05;101909.22;5013774;28;45517;-71
2021/12/21 09:44:26;;;;;;;;;25.75;16.00;;;;;5.90;53.30;101898.97;5014888;28;46603;-71
2021/12/21 09:46:52;;;;;;;;;41.00;30.25;;;;;5.73;53.64;101863.44;5029606;28;45578;-73
2021/12/21 09:49:17;;;;;;;;;23.00;21.50;;;;;5.98;53.23;101904.81;5014747;28;45443;-72
2021/12/21 09:51:43;;;;;;;;;22.25;18.25;;;;;5.85;53.63;101903.06;5013844;28;45485;-70
2021/12/21 09:54:08;;;;;;;;;19.25;14.50;;;;;5.95;53.81;101923.13;5014357;28;45534;-69
2021/12/21 09:56:34;;;;;;;;;49.75;40.00;;;;;5.99;54.08;101913.66;5013801;28;45380;-68
2021/12/21 09:59:01;;;;;;;;;43.25;35.25;;;;;5.81;53.57;101894.84;5014324;28;45480;-70
2021/12/21 10:01:27;;;;;;;;;25.25;21.00;;;;;5.98;53.26;101920.72;5015106;28;45407;-69
2021/12/21 10:03:52;;;;;;;;;20.00;19.00;;;;;6.00;52.94;101924.38;5014548;28;45645;-69
2021/12/21 10:06:17;;;;;;;;;24.00;19.00;;;;;6.00;53.30;101919.06;5030340;28;45548;-69
2021/12/21 10:08:43;;;;;;;;;22.25;18.25;;;;;6.02;53.10;101924.47;5034233;28;45838;-68
2021/12/21 10:11:19;;;;;;;;;22.75;18.25;;;;;5.97;53.09;101897.66;5034581;28;45418;-68
2021/12/21 10:13:44;;;;;;;;;21.00;17.50;;;;;6.02;53.21;101912.16;5013930;28;45319;-70
2021/12/21 10:16:10;;;;;;;;;25.00;18.25;;;;;6.12;53.32;101913.66;5012843;28;45374;-67
2021/12/21 10:18:41;;;;;;;;;23.00;20.00;;;;;6.11;53.60;101921.53;5013935;28;45332;-70
2021/12/21 10:21:09;;;;;;;;;22.25;21.50;;;;;6.19;53.40;101925.56;5011683;28;45465;-69
2021/12/21 10:23:38;;;;;;;;;25.50;22.00;;;;;6.00;52.96;101897.84;5013713;28;46597;-69
2021/12/21 10:26:17;;;;;;;;;18.00;18.00;;;;;5.85;53.21;101868.59;5027010;28;45409;-70
2021/12/21 10:28:46;;;;;;;;;18.00;17.00;;;;;6.18;53.04;101923.72;5033540;28;45324;-68
2021/12/21 10:31:32;;;;;;;;;33.75;19.75;;;;;6.21;52.97;101914.22;5033562;28;45588;-68
2021/12/21 10:34:00;;;;;;;;;24.75;20.75;;;;;6.33;53.05;101914.06;5033703;28;45499;-68
2021/12/21 10:36:26;;;;;;;;;27.50;23.25;;;;;6.32;52.84;101906.94;5033485;28;45355;-69
2021/12/21 10:38:56;;;;;;;;;29.50;21.50;;;;;6.37;53.00;101910.78;5033344;28;45332;-69
2021/12/21 10:41:28;;;;;;;;;17.75;17.75;;;;;6.31;52.51;101888.28;5030682;28;45385;-69
2021/12/21 10:44:01;;;;;;;;;30.50;20.50;;;;;6.49;52.67;101897.34;5026133;28;45491;-70
2021/12/21 10:46:29;;;;;;;;;26.75;19.00;;;;;6.46;52.83;101892.75;5026426;28;45172;-67
2021/12/21 10:49:19;;;;;;;;;26.00;18.50;;;;;6.52;52.43;101909.91;5014107;28;45519;-68
2021/12/21 10:51:56;;;;;;;;;32.50;25.00;;;;;6.54;52.46;101901.22;5007746;28;45479;-69
2021/12/21 10:54:27;;;;;;;;;34.25;20.75;;;;;6.64;52.47;101900.03;5000380;28;46089;-69
2021/12/21 10:57:06;;;;;;;;;21.25;19.50;;;;;6.64;52.52;101884.09;5012927;28;45523;-67
2021/12/21 10:59:34;;;;;;;;;27.75;21.75;;;;;6.32;52.09;101813.09;5013680;28;45701;-69
2021/12/21 11:02:12;;;;;;;;;29.25;23.25;;;;;6.82;51.61;101892.25;5013657;28;45385;-68
2021/12/21 11:04:40;;;;;;;;;25.75;25.75;;;;;6.82;51.89;101884.28;5009598;28;47636;-69
2021/12/21 11:08:04;;;;;;;;;48.00;34.25;;;;;6.85;52.02;101875.56;5007120;28;45512;-71
2021/12/21 11:10:17;;;;;;;;;24.50;18.25;;;;;6.99;51.31;101890.59;5002141;28;45495;-70
2021/12/21 11:12:51;;;;;;;;;24.50;19.00;;;;;7.07;51.41;101901.69;5013414;28;45374;-71
2021/12/21 11:15:19;;;;;;;;;33.50;25.00;;;;;7.02;51.31;101880.16;5012365;28;45506;-70
2021/12/21 11:17:46;;;;;;;;;27.00;25.25;;;;;7.10;51.16;101886.84;5011804;28;45469;-70
2021/12/21 11:20:14;;;;;;;;;21.25;21.25;;;;;7.11;50.60;101875.41;5013075;28;45518;-69
2021/12/21 11:22:42;;;;;;;;;24.00;19.00;;;;;7.08;50.87;101872.56;5034925;28;45351;-70
2021/12/21 11:25:10;;;;;;;;;19.50;19.00;;;;;7.23;50.84;101887.56;5018135;28;46330;-71
2021/12/21 11:27:38;;;;;;;;;31.75;23.75;;;;;7.29;50.86;101883.53;5012607;28;45382;-69
2021/12/21 11:30:08;;;;;;;;;30.50;20.75;;;;;7.32;50.95;101878.34;5013000;28;45277;-69
2021/12/21 11:32:39;;;;;;;;;33.00;23.00;;;;;7.30;50.12;101869.38;5011565;28;45568;-71
2021/12/21 11:37:39;;;;;;;;;23.00;19.50;;;;;7.15;49.56;101829.56;5012505;28;45579;-70
2021/12/21 11:40:08;;;;;;;;;24.75;17.75;;;;;6.75;50.52;101779.44;5013035;28;45359;-70
2021/12/21 11:42:42;;;;;;;;;25.50;23.00;;;;;7.32;50.59;101866.81;5013218;28;45442;-70
2021/12/21 11:45:23;;;;;;;;;26.00;19.75;;;;;7.40;50.55;101861.94;5011523;28;46245;-69
2021/12/21 11:47:57;;;;;;;;;31.50;23.25;;;;;7.45;50.16;101864.03;5009079;28;45490;-70
2021/12/21 11:50:23;;;;;;;;;27.00;23.00;;;;;7.47;49.81;101861.47;5017427;28;45666;-69
2021/12/21 11:52:54;;;;;;;;;34.50;26.00;;;;;7.50;50.21;101862.53;5015939;28;45475;-71
2021/12/21 11:55:23;;;;;;;;;32.75;25.00;;;;;7.52;49.92;101850.28;5021715;28;47318;-70
2021/12/21 11:57:55;;;;;;;;;23.00;19.75;;;;;7.50;50.24;101853.66;5018136;28;45402;-70
2021/12/21 12:00:22;;;;;;;;;33.25;27.75;;;;;7.54;49.70;101853.94;5016129;28;45490;-68
2021/12/21 12:02:49;;;;;;;;;50.50;34.50;;;;;7.54;49.54;101848.59;5019422;28;45554;-70
2021/12/21 12:05:30;;;;;;;;;52.75;41.25;;;;;7.63;50.21;101855.28;5015455;28;46204;-70
2021/12/21 12:08:06;;;;;;;;;38.75;32.25;;;;;7.72;50.27;101851.38;5017425;28;45489;-69
2021/12/21 12:10:34;;;;;;;;;24.25;20.00;;;;;7.71;49.47;101835.34;5023454;28;45477;-71
2021/12/21 12:13:15;;;;;;;;;25.75;21.50;;;;;7.77;48.91;101833.03;5016477;28;45615;-70
2021/12/21 12:15:45;;;;;;;;;38.25;31.75;;;;;7.80;49.43;101832.25;5016103;28;45425;-70
2021/12/21 12:18:20;;;;;;;;;26.75;20.50;;;;;7.70;49.43;101828.19;5013641;28;45285;-69
2021/12/21 12:20:45;;;;;;;;;31.75;21.25;;;;;7.73;49.84;101826.59;5003810;28;45569;-68
2021/12/21 12:23:12;;;;;;;;;24.25;21.00;;;;;7.65;49.55;101797.75;5003780;28;45543;-68
2021/12/21 12:25:49;;;;;;;;;20.50;20.00;;;;;7.83;49.64;101821.78;5014618;28;46390;-68
2021/12/21 12:28:25;;;;;;;;;32.50;28.00;;;;;7.77;49.22;101825.06;5012216;28;45461;-68